Time;durP1;ratioP1;P1;durP2;ratioP2;P2;SDS_P1;SDS_P2;PMS_P1;PMS_P2;Temp;Humidity;BMP_temperature;BMP_pressure;BME280_temperature;BME280_humidity;BME280_pressure;Samples;Min_cycle;Max_cycle;Signal;HPM_P1;HPM_P2
2021/01/27 07:09:13;;;;;;;34.78;17.13;;;;;;;;;;5043202;27;982364;-68
2021/01/27 07:11:48;;;;;;;42.78;19.23;;;;;;;;;;5082880;28;20602;-69
2021/01/27 07:14:14;;;;;;;37.30;17.77;;;;;;;;;;5082378;28;20021;-69
2021/01/27 07:16:52;;;;;;;33.42;16.58;;;;;;;;;;5075142;28;20012;-73
2021/01/27 07:19:27;;;;;;;34.60;16.83;;;;;;;;;;5062963;28;20161;-73
2021/01/27 07:21:56;;;;;;;31.73;16.45;;;;;;;;;;5082819;28;20012;-71
2021/01/27 07:24:31;;;;;;;33.08;17.83;;;;;;;;;;5072431;28;20023;-69
2021/01/27 07:26:59;;;;;;;31.70;17.13;;;;;;;;;;5058636;28;20025;-73
2021/01/27 07:29:32;;;;;;;29.25;17.13;;;;;;;;;;5061407;28;20035;-68
2021/01/27 07:31:59;;;;;;;33.38;16.67;;;;;;;;;;5051778;28;20028;-73
2021/01/27 07:34:34;;;;;;;29.85;15.50;;;;;;;;;;5062613;28;20021;-73
2021/01/27 07:37:09;;;;;;;31.30;17.02;;;;;;;;;;5056139;28;20014;-71
2021/01/27 07:39:35;;;;;;;25.80;15.60;;;;;;;;;;5047313;28;20120;-72
2021/01/27 07:42:10;;;;;;;28.38;15.80;;;;;;;;;;5066905;28;20017;-73
2021/01/27 07:44:36;;;;;;;24.05;14.52;;;;;;;;;;5075635;28;20013;-76
2021/01/27 07:47:03;;;;;;;25.77;15.43;;;;;;;;;;5050447;28;20504;-72
2021/01/27 07:49:34;;;;;;;28.50;16.00;;;;;;;;;;5068167;28;20021;-74
2021/01/27 07:52:03;;;;;;;27.58;14.57;;;;;;;;;;5067435;28;20487;-76
2021/01/27 07:54:36;;;;;;;24.35;14.23;;;;;;;;;;5068267;28;20013;-75
2021/01/27 07:57:09;;;;;;;25.67;16.08;;;;;;;;;;5067348;28;20373;-72
2021/01/27 07:59:35;;;;;;;26.75;14.40;;;;;;;;;;5066327;28;20057;-65
2021/01/27 08:02:10;;;;;;;26.73;15.38;;;;;;;;;;5067819;28;20025;-62
2021/01/27 08:04:40;;;;;;;368.17;35.40;;;;;;;;;;5066968;28;20028;-62
2021/01/27 08:07:07;;;;;;;26.23;14.65;;;;;;;;;;5065662;28;20390;-62
2021/01/27 08:09:35;;;;;;;23.55;14.80;;;;;;;;;;5066465;28;20020;-62
2021/01/27 08:12:10;;;;;;;27.27;16.00;;;;;;;;;;5061974;28;20036;-64
2021/01/27 08:14:45;;;;;;;25.88;14.98;;;;;;;;;;5063110;28;20103;-64
2021/01/27 08:17:20;;;;;;;26.10;15.82;;;;;;;;;;5071463;28;20023;-64
2021/01/27 08:20:05;;;;;;;21.67;14.25;;;;;;;;;;5055697;28;20553;-65
2021/01/27 08:22:40;;;;;;;25.05;15.25;;;;;;;;;;5048789;28;20032;-64
2021/01/27 08:25:06;;;;;;;25.52;15.70;;;;;;;;;;5053775;28;20096;-64
2021/01/27 08:27:32;;;;;;;21.48;14.40;;;;;;;;;;5040515;28;20466;-64
2021/01/27 08:29:57;;;;;;;26.65;16.90;;;;;;;;;;5057830;28;20083;-64
2021/01/27 08:32:25;;;;;;;22.08;15.57;;;;;;;;;;5059881;28;20059;-66
2021/01/27 08:34:52;;;;;;;24.42;15.00;;;;;;;;;;5024668;28;20021;-67
2021/01/27 08:37:19;;;;;;;22.65;15.27;;;;;;;;;;5027494;28;20031;-66
2021/01/27 08:39:44;;;;;;;24.35;15.27;;;;;;;;;;5032976;28;20025;-64
2021/01/27 08:42:19;;;;;;;25.50;15.98;;;;;;;;;;5059382;28;20361;-67
2021/01/27 08:44:44;;;;;;;24.92;15.50;;;;;;;;;;5055544;28;20024;-67
2021/01/27 08:47:19;;;;;;;25.00;16.55;;;;;;;;;;5042144;28;20409;-66
2021/01/27 08:49:47;;;;;;;24.45;16.02;;;;;;;;;;5077432;28;20465;-67
2021/01/27 08:52:13;;;;;;;25.80;16.17;;;;;;;;;;5059668;28;20474;-68
2021/01/27 08:54:40;;;;;;;24.38;15.52;;;;;;;;;;5061012;28;20015;-66
2021/01/27 08:57:15;;;;;;;27.52;16.00;;;;;;;;;;5050793;28;20029;-65
2021/01/27 08:59:50;;;;;;;24.30;16.10;;;;;;;;;;5051482;28;20021;-69
2021/01/27 09:02:35;;;;;;;24.73;15.43;;;;;;;;;;5041719;28;20040;-66
2021/01/27 09:05:02;;;;;;;24.90;15.40;;;;;;;;;;5043882;28;20025;-68
2021/01/27 09:07:27;;;;;;;25.02;16.40;;;;;;;;;;5046603;28;20107;-68
2021/01/27 09:09:53;;;;;;;28.13;17.17;;;;;;;;;;5048712;28;20055;-66
2021/01/27 09:12:25;;;;;;;22.88;15.57;;;;;;;;;;5050960;28;20155;-68
2021/01/27 09:14:51;;;;;;;23.90;16.17;;;;;;;;;;5057034;28;20052;-68
2021/01/27 09:17:17;;;;;;;29.05;16.42;;;;;;;;;;5069428;28;20029;-68
2021/01/27 09:19:44;;;;;;;24.17;16.13;;;;;;;;;;5055796;28;20040;-69
2021/01/27 09:22:16;;;;;;;27.92;17.85;;;;;;;;;;5061149;28;20088;-67
2021/01/27 09:24:46;;;;;;;25.20;16.38;;;;;;;;;;5052111;28;20016;-67
2021/01/27 09:27:13;;;;;;;26.30;15.75;;;;;;;;;;5050799;28;20031;-66
2021/01/27 09:29:39;;;;;;;28.85;17.27;;;;;;;;;;5051045;28;20048;-67
2021/01/27 09:32:14;;;;;;;25.15;16.50;;;;;;;;;;5032267;28;20053;-67
2021/01/27 09:34:39;;;;;;;25.92;17.02;;;;;;;;;;5052073;28;20013;-67
2021/01/27 09:37:08;;;;;;;26.60;16.17;;;;;;;;;;5054780;28;20043;-65
2021/01/27 09:39:35;;;;;;;27.13;16.13;;;;;;;;;;5064208;28;20021;-69
2021/01/27 09:42:02;;;;;;;24.33;15.82;;;;;;;;;;5062378;28;20057;-69
2021/01/27 09:44:33;;;;;;;24.52;17.05;;;;;;;;;;5050945;28;20020;-67
2021/01/27 09:47:04;;;;;;;25.38;15.82;;;;;;;;;;5043759;28;20028;-68
2021/01/27 09:49:30;;;;;;;25.10;16.77;;;;;;;;;;5036821;28;20022;-68
2021/01/27 09:51:55;;;;;;;26.77;16.80;;;;;;;;;;5045868;28;20028;-68
2021/01/27 09:54:22;;;;;;;25.85;17.08;;;;;;;;;;5061352;28;20021;-70
2021/01/27 09:56:58;;;;;;;22.88;16.15;;;;;;;;;;5050769;28;20005;-69
2021/01/27 09:59:24;;;;;;;26.65;16.17;;;;;;;;;;5044669;28;20060;-72
2021/01/27 10:01:49;;;;;;;26.25;16.17;;;;;;;;;;5040352;28;20455;-68
2021/01/27 10:04:17;;;;;;;27.27;16.80;;;;;;;;;;5040943;28;20023;-68
2021/01/27 10:06:44;;;;;;;26.60;16.63;;;;;;;;;;5052188;28;20020;-68
2021/01/27 10:09:15;;;;;;;28.63;17.35;;;;;;;;;;5064926;28;20480;-66
2021/01/27 10:11:41;;;;;;;27.15;15.13;;;;;;;;;;5024329;28;20012;-68
2021/01/27 10:14:08;;;;;;;28.00;17.02;;;;;;;;;;5054628;28;20028;-68
2021/01/27 10:16:46;;;;;;;26.70;16.27;;;;;;;;;;5066392;28;20013;-66
2021/01/27 10:19:12;;;;;;;23.83;15.75;;;;;;;;;;5043566;28;20040;-62
2021/01/27 10:21:47;;;;;;;25.08;16.73;;;;;;;;;;5063257;28;20499;-61
2021/01/27 10:24:22;;;;;;;25.42;16.08;;;;;;;;;;5053543;28;20346;-60
2021/01/27 10:27:00;;;;;;;29.85;16.80;;;;;;;;;;5051985;28;20023;-62
2021/01/27 10:29:31;;;;;;;27.20;17.95;;;;;;;;;;5072239;28;20108;-60
2021/01/27 10:31:57;;;;;;;25.15;15.98;;;;;;;;;;5073512;28;20037;-61
2021/01/27 10:34:32;;;;;;;27.45;16.80;;;;;;;;;;5052702;28;20036;-60
2021/01/27 10:36:57;;;;;;;22.60;14.13;;;;;;;;;;5070516;28;20492;-60
2021/01/27 10:39:24;;;;;;;24.73;14.27;;;;;;;;;;5035490;28;20037;-61
2021/01/27 10:41:52;;;;;;;22.40;12.85;;;;;;;;;;5069808;28;20021;-61
2021/01/27 10:44:21;;;;;;;29.73;20.77;;;;;;;;;;5064587;28;20030;-61
2021/01/27 10:46:46;;;;;;;19.90;11.60;;;;;;;;;;5053462;28;20008;-60
2021/01/27 10:49:12;;;;;;;20.27;12.27;;;;;;;;;;5076884;28;20554;-60
2021/01/27 10:51:37;;;;;;;19.20;11.68;;;;;;;;;;5070389;28;20086;-61
2021/01/27 10:54:03;;;;;;;18.92;11.98;;;;;;;;;;5052913;28;20021;-60
2021/01/27 10:56:28;;;;;;;22.58;11.93;;;;;;;;;;5052019;28;20111;-61
2021/01/27 10:58:54;;;;;;;18.58;11.05;;;;;;;;;;5052027;28;20787;-61
2021/01/27 11:01:19;;;;;;;20.88;10.95;;;;;;;;;;5053521;28;20112;-60
2021/01/27 11:03:45;;;;;;;19.40;10.40;;;;;;;;;;5052420;28;20021;-60
2021/01/27 11:06:10;;;;;;;18.35;10.73;;;;;;;;;;5052332;28;20013;-61
2021/01/27 11:08:36;;;;;;;18.67;10.95;;;;;;;;;;5070447;28;20508;-60
2021/01/27 11:11:03;;;;;;;17.33;11.02;;;;;;;;;;5069569;28;20048;-60
2021/01/27 11:13:32;;;;;;;20.70;11.60;;;;;;;;;;5070300;28;20024;-60
2021/01/27 11:15:57;;;;;;;24.90;11.48;;;;;;;;;;5046947;28;20033;-60
2021/01/27 11:18:23;;;;;;;16.45;10.25;;;;;;;;;;5037846;28;20025;-60
2021/01/27 11:20:49;;;;;;;15.88;9.77;;;;;;;;;;5050966;28;20016;-60
2021/01/27 11:23:14;;;;;;;19.55;10.95;;;;;;;;;;5079183;28;20033;-61
2021/01/27 11:25:40;;;;;;;17.20;10.43;;;;;;;;;;5069950;28;20027;-61
2021/01/27 11:28:05;;;;;;;19.85;10.52;;;;;;;;;;5051776;28;20021;-61
2021/01/27 11:30:31;;;;;;;14.60;9.68;;;;;;;;;;5070347;28;20017;-60
2021/01/27 11:32:56;;;;;;;17.50;10.13;;;;;;;;;;5069687;28;20012;-61
2021/01/27 11:35:22;;;;;;;17.80;9.98;;;;;;;;;;5052257;28;20024;-60
2021/01/27 11:37:48;;;;;;;18.15;10.77;;;;;;;;;;5069984;28;20029;-60
2021/01/27 11:40:16;;;;;;;15.85;9.88;;;;;;;;;;5068380;28;20009;-60
2021/01/27 11:42:41;;;;;;;14.05;9.18;;;;;;;;;;5054158;28;20012;-61
2021/01/27 11:45:07;;;;;;;17.08;9.82;;;;;;;;;;5081623;28;20016;-61
2021/01/27 11:47:33;;;;;;;16.55;10.05;;;;;;;;;;5078434;28;20775;-60
2021/01/27 11:49:58;;;;;;;17.02;9.30;;;;;;;;;;5074447;28;20346;-61
2021/01/27 11:52:24;;;;;;;17.83;9.25;;;;;;;;;;5059694;28;20024;-60
2021/01/27 11:54:50;;;;;;;16.52;9.60;;;;;;;;;;5065142;28;20020;-61
2021/01/27 11:57:17;;;;;;;14.40;9.30;;;;;;;;;;5086396;28;20031;-62
2021/01/27 11:59:42;;;;;;;15.98;8.95;;;;;;;;;;5067326;28;20385;-60
2021/01/27 12:02:07;;;;;;;13.38;8.95;;;;;;;;;;5075619;28;20026;-61
2021/01/27 12:04:34;;;;;;;15.82;9.10;;;;;;;;;;5051093;28;20115;-61
2021/01/27 12:06:59;;;;;;;14.75;9.30;;;;;;;;;;5083607;28;20517;-62
2021/01/27 12:09:25;;;;;;;15.55;8.90;;;;;;;;;;5072845;28;20023;-61
2021/01/27 12:11:50;;;;;;;14.40;9.40;;;;;;;;;;5065086;28;20020;-62
2021/01/27 12:14:16;;;;;;;13.40;8.45;;;;;;;;;;5082736;28;20103;-61
2021/01/27 12:16:43;;;;;;;14.05;9.00;;;;;;;;;;5064339;28;20008;-61
2021/01/27 12:19:08;;;;;;;13.65;9.15;;;;;;;;;;5062428;28;20036;-61
2021/01/27 12:21:34;;;;;;;15.55;9.27;;;;;;;;;;5094170;28;20008;-60
2021/01/27 12:24:03;;;;;;;16.95;9.52;;;;;;;;;;5093893;28;20052;-61
2021/01/27 12:26:28;;;;;;;15.57;9.70;;;;;;;;;;5098726;28;20472;-61
2021/01/27 12:28:54;;;;;;;17.75;9.00;;;;;;;;;;5102244;28;20074;-62
2021/01/27 12:31:19;;;;;;;13.18;8.45;;;;;;;;;;5105687;28;20020;-63
2021/01/27 12:33:45;;;;;;;13.68;8.77;;;;;;;;;;5085879;28;20080;-63
2021/01/27 12:36:10;;;;;;;14.85;8.70;;;;;;;;;;5085550;28;20023;-63
2021/01/27 12:38:36;;;;;;;17.35;8.95;;;;;;;;;;5073639;28;20049;-63
2021/01/27 12:41:01;;;;;;;14.43;9.73;;;;;;;;;;5054945;28;20369;-62
2021/01/27 12:43:26;;;;;;;16.42;9.05;;;;;;;;;;5073465;28;20443;-61
2021/01/27 12:45:52;;;;;;;15.63;8.85;;;;;;;;;;5055253;28;20013;-63
2021/01/27 12:48:18;;;;;;;17.17;9.52;;;;;;;;;;5064230;28;20017;-64
2021/01/27 12:50:44;;;;;;;11.90;8.23;;;;;;;;;;5057348;28;20492;-62
2021/01/27 12:53:10;;;;;;;16.17;10.05;;;;;;;;;;5065246;28;20017;-64
2021/01/27 12:55:36;;;;;;;15.88;9.48;;;;;;;;;;5063072;28;20025;-63
2021/01/27 12:58:01;;;;;;;17.30;9.70;;;;;;;;;;5060014;28;20036;-64
2021/01/27 13:00:28;;;;;;;15.68;9.75;;;;;;;;;;5070769;28;20035;-64
2021/01/27 13:02:54;;;;;;;15.95;9.70;;;;;;;;;;5059386;28;20016;-68
2021/01/27 13:05:21;;;;;;;16.05;9.35;;;;;;;;;;5088544;28;20063;-67
2021/01/27 13:07:46;;;;;;;14.25;9.15;;;;;;;;;;5046571;28;20050;-67
2021/01/27 13:10:12;;;;;;;14.80;9.32;;;;;;;;;;5037235;28;20405;-64
2021/01/27 13:12:39;;;;;;;15.15;9.73;;;;;;;;;;5071455;28;20094;-66
2021/01/27 13:15:05;;;;;;;14.43;9.68;;;;;;;;;;5072894;28;20025;-66
2021/01/27 13:17:31;;;;;;;15.35;9.43;;;;;;;;;;5054726;28;20029;-64
2021/01/27 13:19:56;;;;;;;15.38;9.32;;;;;;;;;;5073166;28;20017;-65
2021/01/27 13:22:21;;;;;;;14.88;9.48;;;;;;;;;;5058755;28;20518;-66
2021/01/27 13:24:47;;;;;;;20.55;9.70;;;;;;;;;;5051351;28;20052;-64
2021/01/27 13:27:13;;;;;;;14.77;9.10;;;;;;;;;;5066399;28;20020;-65
2021/01/27 13:29:38;;;;;;;16.30;9.60;;;;;;;;;;5071941;28;20021;-66
2021/01/27 13:32:04;;;;;;;18.83;10.40;;;;;;;;;;5057637;28;20032;-65
2021/01/27 13:34:29;;;;;;;18.10;9.00;;;;;;;;;;5081898;28;20021;-67
2021/01/27 13:36:55;;;;;;;15.68;9.52;;;;;;;;;;5062733;28;20408;-65
2021/01/27 13:39:21;;;;;;;16.10;10.07;;;;;;;;;;5050968;28;20040;-63
2021/01/27 13:41:46;;;;;;;14.48;9.23;;;;;;;;;;5033667;28;20052;-66
2021/01/27 13:44:11;;;;;;;13.75;8.32;;;;;;;;;;5072099;28;20020;-66
2021/01/27 13:46:37;;;;;;;16.83;9.25;;;;;;;;;;5070999;28;20012;-65
2021/01/27 13:49:02;;;;;;;16.05;8.90;;;;;;;;;;5067520;28;20118;-65
2021/01/27 13:51:28;;;;;;;14.35;8.07;;;;;;;;;;5065493;28;20025;-64
2021/01/27 13:53:53;;;;;;;15.90;9.65;;;;;;;;;;5066218;28;20016;-65
2021/01/27 13:56:19;;;;;;;17.60;9.38;;;;;;;;;;5025971;28;20070;-65
2021/01/27 13:58:44;;;;;;;13.02;8.73;;;;;;;;;;5065410;28;20033;-65
2021/01/27 14:01:09;;;;;;;15.05;8.70;;;;;;;;;;5033679;28;20021;-65
2021/01/27 14:03:35;;;;;;;17.15;9.35;;;;;;;;;;5063151;28;20024;-67
2021/01/27 14:06:00;;;;;;;19.02;9.68;;;;;;;;;;5046127;28;20096;-63
2021/01/27 14:08:26;;;;;;;19.30;11.40;;;;;;;;;;5060445;28;20049;-64
2021/01/27 14:10:51;;;;;;;19.50;11.90;;;;;;;;;;5068400;28;20027;-66
2021/01/27 14:13:16;;;;;;;18.15;9.93;;;;;;;;;;5066649;28;20445;-67
2021/01/27 14:15:42;;;;;;;14.95;8.73;;;;;;;;;;5068199;28;20020;-64
2021/01/27 14:18:08;;;;;;;18.05;9.50;;;;;;;;;;5060711;28;20033;-62
2021/01/27 14:20:33;;;;;;;13.00;8.00;;;;;;;;;;5052702;28;20040;-62
2021/01/27 14:22:59;;;;;;;13.90;8.43;;;;;;;;;;5069929;28;20465;-62
2021/01/27 14:25:25;;;;;;;13.50;8.68;;;;;;;;;;5049260;28;20031;-61
2021/01/27 14:27:51;;;;;;;16.17;8.95;;;;;;;;;;5059835;28;20448;-61
2021/01/27 14:30:18;;;;;;;14.65;8.75;;;;;;;;;;5061030;28;20232;-62
2021/01/27 14:32:44;;;;;;;14.57;8.43;;;;;;;;;;5067475;28;20526;-62
2021/01/27 14:35:10;;;;;;;15.68;9.45;;;;;;;;;;5044242;28;20017;-62
2021/01/27 14:37:35;;;;;;;16.77;8.85;;;;;;;;;;5072739;28;20115;-62
2021/01/27 14:40:01;;;;;;;14.18;8.50;;;;;;;;;;5065570;28;20082;-61
2021/01/27 14:42:27;;;;;;;14.77;8.85;;;;;;;;;;5065305;28;20120;-62
2021/01/27 14:44:53;;;;;;;13.95;7.95;;;;;;;;;;5070746;28;20035;-63
2021/01/27 14:47:18;;;;;;;15.10;9.00;;;;;;;;;;5059669;28;20021;-62
2021/01/27 14:49:44;;;;;;;17.52;8.95;;;;;;;;;;5058796;28;20382;-63
2021/01/27 14:52:10;;;;;;;16.45;8.98;;;;;;;;;;5066800;28;20381;-62
2021/01/27 14:54:37;;;;;;;15.32;9.13;;;;;;;;;;5056302;28;20527;-62
2021/01/27 14:57:02;;;;;;;13.77;8.57;;;;;;;;;;5044044;28;20044;-62
2021/01/27 14:59:28;;;;;;;18.70;9.35;;;;;;;;;;5033256;28;20457;-62
2021/01/27 15:01:54;;;;;;;16.45;9.30;;;;;;;;;;5073952;28;20120;-62
2021/01/27 15:04:19;;;;;;;20.00;9.48;;;;;;;;;;5073568;28;20111;-62
2021/01/27 15:06:45;;;;;;;18.13;10.85;;;;;;;;;;5058857;28;20773;-61
2021/01/27 15:09:10;;;;;;;20.95;10.85;;;;;;;;;;5077982;28;20052;-61
2021/01/27 15:11:36;;;;;;;20.17;10.98;;;;;;;;;;5074285;28;20017;-62
2021/01/27 15:14:01;;;;;;;18.27;10.18;;;;;;;;;;5051819;28;20020;-61
2021/01/27 15:16:27;;;;;;;19.63;10.18;;;;;;;;;;5052981;28;20076;-63
2021/01/27 15:18:52;;;;;;;19.58;10.10;;;;;;;;;;5074407;28;20040;-64
2021/01/27 15:21:18;;;;;;;18.20;9.18;;;;;;;;;;5066827;28;20020;-65
2021/01/27 15:23:43;;;;;;;16.80;9.75;;;;;;;;;;5080063;28;20023;-63
2021/01/27 15:26:09;;;;;;;18.10;9.60;;;;;;;;;;5068037;28;20027;-64
2021/01/27 15:28:34;;;;;;;15.95;9.45;;;;;;;;;;5066435;28;20469;-63
2021/01/27 15:31:00;;;;;;;17.40;10.00;;;;;;;;;;5075789;28;20020;-64
2021/01/27 15:33:25;;;;;;;17.50;10.15;;;;;;;;;;5080017;28;20019;-63
2021/01/27 15:35:51;;;;;;;19.75;10.23;;;;;;;;;;5079877;28;20077;-63
2021/01/27 15:38:20;;;;;;;18.42;10.23;;;;;;;;;;5060057;28;20032;-64
2021/01/27 15:40:45;;;;;;;;;;;;;;;;;;5058936;28;20053;-64
2021/01/27 15:43:15;;;;;;;20.98;10.10;;;;;;;;;;5074745;28;19913;-64
2021/01/27 15:45:40;;;;;;;;;;;;;;;;;;5075045;28;20024;-64
2021/01/27 15:48:07;;;;;;;19.65;9.98;;;;;;;;;;5074848;28;20050;-63
2021/01/27 15:50:32;;;;;;;16.85;10.05;;;;;;;;;;5074694;28;20012;-63
2021/01/27 15:52:58;;;;;;;18.65;11.05;;;;;;;;;;5056682;28;20066;-63
2021/01/27 15:55:25;;;;;;;21.27;10.18;;;;;;;;;;5056982;28;20099;-64
2021/01/27 15:57:50;;;;;;;19.40;10.35;;;;;;;;;;5056619;28;20035;-64
2021/01/27 16:00:16;;;;;;;37.35;11.98;;;;;;;;;;5074765;28;20028;-64
2021/01/27 16:02:43;;;;;;;19.48;10.70;;;;;;;;;;5074542;28;20015;-64
2021/01/27 16:05:10;;;;;;;18.00;10.32;;;;;;;;;;5074521;28;20438;-64
2021/01/27 16:07:37;;;;;;;20.50;9.90;;;;;;;;;;5074369;28;20052;-64
2021/01/27 16:10:04;;;;;;;21.88;10.90;;;;;;;;;;5056220;28;20069;-64
2021/01/27 16:12:30;;;;;;;20.80;11.95;;;;;;;;;;5056552;28;20100;-63
2021/01/27 16:14:56;;;;;;;22.83;10.55;;;;;;;;;;5039763;28;20024;-63
2021/01/27 16:17:22;;;;;;;17.45;10.57;;;;;;;;;;5074503;28;20404;-64
2021/01/27 16:19:48;;;;;;;14.90;9.40;;;;;;;;;;5074342;28;20028;-65
2021/01/27 16:22:14;;;;;;;16.42;9.77;;;;;;;;;;5074233;28;20466;-65
2021/01/27 16:24:39;;;;;;;18.98;10.35;;;;;;;;;;5074361;28;20024;-64
2021/01/27 16:27:05;;;;;;;24.77;11.60;;;;;;;;;;5055821;28;20385;-64
2021/01/27 16:29:31;;;;;;;20.17;10.20;;;;;;;;;;5074060;28;20095;-65
2021/01/27 16:31:57;;;;;;;29.15;13.55;;;;;;;;;;5074351;28;20017;-65
2021/01/27 16:34:23;;;;;;;30.52;14.30;;;;;;;;;;5056344;28;20017;-65
2021/01/27 16:36:48;;;;;;;41.65;14.85;;;;;;;;;;5073838;28;20012;-65
2021/01/27 16:39:14;;;;;;;33.83;15.32;;;;;;;;;;5039269;28;20040;-64
2021/01/27 16:41:40;;;;;;;30.83;15.13;;;;;;;;;;5072257;28;20059;-65
2021/01/27 16:44:07;;;;;;;31.70;14.45;;;;;;;;;;5056092;28;20012;-65
2021/01/27 16:46:34;;;;;;;25.85;12.68;;;;;;;;;;5073863;28;20091;-64
2021/01/27 16:49:00;;;;;;;32.78;13.55;;;;;;;;;;5073775;28;20017;-64
2021/01/27 16:51:26;;;;;;;26.65;12.27;;;;;;;;;;5056251;28;20031;-64
2021/01/27 16:53:51;;;;;;;25.25;12.25;;;;;;;;;;5073767;28;20111;-65
2021/01/27 16:56:18;;;;;;;26.77;12.05;;;;;;;;;;5073305;28;20096;-65
2021/01/27 16:58:44;;;;;;;27.35;12.77;;;;;;;;;;5073463;28;20029;-65
2021/01/27 17:01:10;;;;;;;25.92;11.93;;;;;;;;;;5073268;28;20017;-65
2021/01/27 17:03:37;;;;;;;24.05;11.20;;;;;;;;;;5073862;28;20036;-64
2021/01/27 17:06:03;;;;;;;27.70;12.25;;;;;;;;;;5056006;28;20023;-64
2021/01/27 17:08:31;;;;;;;27.35;12.32;;;;;;;;;;5047927;28;20129;-63
2021/01/27 17:10:57;;;;;;;24.05;12.45;;;;;;;;;;5039256;28;20028;-64
2021/01/27 17:13:24;;;;;;;26.60;13.38;;;;;;;;;;5040418;28;20021;-64
2021/01/27 17:15:50;;;;;;;25.63;12.70;;;;;;;;;;5048314;28;20068;-64
2021/01/27 17:18:16;;;;;;;22.30;11.65;;;;;;;;;;5035265;28;20486;-66
2021/01/27 17:20:42;;;;;;;21.85;11.20;;;;;;;;;;5045976;28;20014;-64
2021/01/27 17:23:08;;;;;;;27.70;11.48;;;;;;;;;;5042401;28;20056;-67
2021/01/27 17:25:33;;;;;;;26.55;11.35;;;;;;;;;;5038793;28;20018;-67
2021/01/27 17:27:59;;;;;;;28.00;10.98;;;;;;;;;;5049423;28;20385;-67
